Strona główna
METAR-TAF:

METAR-TAF

Lotnisko :

Castres, Francja

Szerokość geograficzna: 43-33-25N, Długość geograficzna: 2-17-21E, wysokość: 239 m

Aktualna obserwacja pogody

Raport powstał 41 minut temu, godzina 02:00 UTC
Wiatr 4 kt od wschodnio-południowy wschód
Temperatura 19°C
Wilgotność 83%
Ciśnienie 1021 hPa
Widzialność 10 km lub więcej

METAR: LFCK 210200Z AUTO 11004KT 9999 ///TCU 19/16 Q1021

czas: 04:41 (02:41 UTC)

Prognoza

Raport powstał 9 godziny i 41 minut temu, godzina 17:00 UTC
Prognoza ważna od 20 godzina 18 UTC do 21 godzina 03 UTC
Wiatr 10 kt od wschodnio-południowy wschód
Widzialność 10 km lub więcej
Przerywane chmury na wysokości 4000 ft
Prawdopodobieństwo 40% :
Przejściowo
od 21 godzina 00 UTC do 21 godzina 03 UTC
Przerywane chmury na wysokości 2000 ft

TAF: LFCK 201700Z 2018/2103 12010KT 9999 BKN040 PROB40 TEMPO 2100/2103 BKN020

Obserwacja i prognoza pogody dla ponad 4000 lotnisk (raport METAR i TAF).

Dostępne stacje oznaczono żółtymi i czerwonymi punktami na mapie.

Najedź kursorem aby zobaczyć nazwę stacji.

Kliknij aby zobaczyć obserwacje i prognozy pogody.

Aby zmienić mapę: kliknij na zielony przycisk z czarnym krzyżykiem, aby powiększyć; na zielony przycisk z myślnikiem, aby pomniejszyć; na zielone strzałki, aby przejść do map sąsiednich.


METAR-TAF: